createdAt,value
2019-03-18T00:01:41.866Z,16.46
2019-03-18T00:04:09.611Z,16.67
2019-03-18T00:06:37.382Z,16.30
2019-03-18T00:09:05.824Z,16.49
2019-03-18T00:11:33.562Z,16.38
2019-03-18T00:14:01.317Z,16.16
2019-03-18T00:16:29.060Z,16.40
2019-03-18T00:18:56.805Z,16.24
2019-03-18T00:21:24.817Z,16.37
2019-03-18T00:23:52.563Z,16.45
2019-03-18T00:26:20.318Z,16.23
2019-03-18T00:28:48.064Z,16.12
2019-03-18T00:31:15.801Z,16.23
2019-03-18T00:33:43.575Z,16.35
2019-03-18T00:36:11.384Z,16.21
2019-03-18T00:38:39.141Z,16.56
2019-03-18T00:41:06.862Z,16.22
2019-03-18T00:43:34.605Z,16.15
2019-03-18T00:46:02.392Z,16.11
2019-03-18T00:48:30.235Z,16.07
2019-03-18T00:50:58.061Z,16.09
2019-03-18T00:53:25.817Z,15.79
2019-03-18T00:55:53.844Z,16.28
2019-03-18T00:58:21.574Z,16.08
2019-03-18T01:00:49.372Z,16.10
2019-03-18T01:03:17.202Z,16.04
2019-03-18T01:05:44.993Z,15.98
2019-03-18T01:08:12.768Z,15.90
2019-03-18T01:10:40.517Z,16.11
2019-03-18T01:13:08.293Z,15.99
2019-03-18T01:15:36.057Z,15.71
2019-03-18T01:18:03.969Z,15.83
2019-03-18T01:20:31.770Z,15.95
2019-03-18T01:22:59.626Z,15.97
2019-03-18T01:25:27.369Z,15.79
2019-03-18T01:27:55.125Z,16.09
2019-03-18T01:30:22.889Z,15.76
2019-03-18T01:32:50.653Z,16.01
2019-03-18T01:35:18.452Z,15.74
2019-03-18T01:37:46.231Z,15.73
2019-03-18T01:40:13.977Z,16.02
2019-03-18T01:42:41.845Z,15.54
2019-03-18T01:45:09.660Z,15.82
2019-03-18T01:47:37.491Z,15.67
2019-03-18T01:50:05.615Z,15.91
2019-03-18T01:52:33.379Z,15.68
2019-03-18T01:55:01.176Z,15.88
2019-03-18T01:57:28.950Z,15.86
2019-03-18T01:59:56.710Z,15.96
2019-03-18T02:02:24.469Z,15.76
2019-03-18T02:04:52.246Z,15.85
2019-03-18T02:07:20.016Z,15.95
2019-03-18T02:09:47.809Z,15.69
2019-03-18T02:12:15.690Z,15.59
2019-03-18T02:14:43.507Z,15.89
2019-03-18T02:17:11.312Z,15.79
2019-03-18T02:19:39.237Z,15.82
2019-03-18T02:22:07.160Z,15.82
2019-03-18T02:24:34.987Z,15.79
2019-03-18T02:27:02.751Z,16.00
2019-03-18T02:29:30.522Z,15.82
2019-03-18T02:31:58.541Z,15.97
2019-03-18T02:34:26.280Z,15.92
2019-03-18T02:36:54.158Z,16.10
2019-03-18T02:39:21.992Z,15.12
2019-03-18T02:41:49.790Z,15.84
2019-03-18T02:44:17.677Z,15.79
2019-03-18T02:46:45.438Z,15.97
2019-03-18T02:49:13.277Z,15.95
2019-03-18T02:51:41.123Z,15.95
2019-03-18T02:54:09.010Z,15.61
2019-03-18T02:56:36.801Z,15.53
2019-03-18T02:59:04.547Z,15.71
2019-03-18T03:01:32.370Z,15.68
2019-03-18T03:04:00.143Z,15.58
2019-03-18T03:06:27.892Z,16.01
2019-03-18T03:08:55.817Z,15.95
2019-03-18T03:11:23.550Z,15.77
2019-03-18T03:13:51.341Z,15.95
2019-03-18T03:16:26.652Z,15.38
2019-03-18T03:18:48.604Z,15.85
2019-03-18T03:21:16.507Z,15.65
2019-03-18T03:23:44.311Z,15.71
2019-03-18T03:26:12.063Z,15.73
2019-03-18T03:28:39.803Z,15.82
2019-03-18T03:31:07.704Z,15.78
2019-03-18T03:33:35.529Z,15.84
2019-03-18T03:36:03.276Z,15.56
2019-03-18T03:38:31.057Z,15.55
2019-03-18T03:40:58.805Z,15.74
2019-03-18T03:43:26.557Z,15.73
2019-03-18T03:45:54.392Z,15.04
2019-03-18T03:48:22.170Z,15.63
2019-03-18T03:50:49.920Z,15.08
2019-03-18T03:53:17.797Z,15.73
2019-03-18T03:55:45.534Z,15.82
2019-03-18T03:58:13.293Z,15.82
2019-03-18T04:00:41.053Z,15.45
2019-03-18T04:03:08.836Z,15.79
2019-03-18T04:05:36.656Z,15.79
2019-03-18T04:08:04.408Z,15.85
2019-03-18T04:10:32.209Z,15.87
2019-03-18T04:13:00.005Z,15.65
2019-03-18T04:15:27.749Z,15.75
2019-03-18T04:17:55.592Z,15.61
2019-03-18T04:20:23.340Z,14.96
2019-03-18T04:22:51.178Z,15.63
2019-03-18T04:25:18.957Z,15.76
2019-03-18T04:27:46.720Z,15.64
2019-03-18T04:30:14.504Z,15.88
2019-03-18T04:32:42.236Z,15.86
2019-03-18T04:35:10.030Z,15.58
2019-03-18T04:37:37.801Z,15.69
2019-03-18T04:40:05.759Z,15.54
2019-03-18T04:42:33.559Z,15.47
2019-03-18T04:45:01.534Z,15.67
2019-03-18T04:47:29.303Z,15.69
2019-03-18T04:49:57.061Z,15.59
2019-03-18T04:52:24.799Z,15.61
2019-03-18T04:54:52.556Z,15.65
2019-03-18T04:57:20.337Z,15.55
2019-03-18T04:59:48.129Z,15.47
2019-03-18T05:02:16.958Z,15.28
2019-03-18T05:04:44.944Z,15.60
2019-03-18T05:07:12.698Z,15.35
2019-03-18T05:09:40.460Z,15.53
2019-03-18T05:12:08.276Z,15.44
2019-03-18T05:14:36.106Z,15.54
2019-03-18T05:17:03.997Z,15.65
2019-03-18T05:19:31.763Z,15.57
2019-03-18T05:21:59.664Z,15.61
2019-03-18T05:24:27.425Z,15.50
2019-03-18T05:26:55.163Z,15.61
2019-03-18T05:29:22.920Z,15.72
2019-03-18T05:31:50.657Z,15.59
2019-03-18T05:34:18.397Z,15.57
2019-03-18T05:36:46.170Z,15.40
2019-03-18T05:39:22.704Z,15.69
2019-03-18T05:41:50.473Z,15.72
2019-03-18T05:44:18.302Z,16.05
2019-03-18T05:47:38.343Z,16.13
2019-03-18T05:50:14.581Z,16.41
2019-03-18T05:53:31.604Z,16.15
2019-03-18T05:55:14.232Z,16.11
2019-03-18T05:57:42.115Z,15.61
2019-03-18T06:00:09.928Z,15.48
2019-03-18T06:02:37.684Z,15.51
2019-03-18T06:05:05.822Z,15.30
2019-03-18T06:07:33.575Z,15.18
2019-03-18T06:10:01.343Z,15.32
2019-03-18T06:12:29.155Z,15.48
2019-03-18T06:14:57.140Z,15.51
2019-03-18T06:17:24.877Z,14.91
2019-03-18T06:19:52.688Z,15.59
2019-03-18T06:22:20.598Z,15.58
2019-03-18T06:24:48.450Z,15.64
2019-03-18T06:27:16.314Z,16.11
2019-03-18T06:29:44.157Z,15.91
2019-03-18T06:32:12.031Z,16.01
2019-03-18T06:34:39.908Z,16.08
2019-03-18T06:37:07.741Z,16.09
2019-03-18T06:39:35.519Z,16.02
2019-03-18T06:42:03.306Z,15.96
2019-03-18T06:44:31.052Z,16.06
2019-03-18T06:46:58.901Z,15.70
2019-03-18T06:49:26.664Z,15.94
2019-03-18T06:51:54.504Z,16.29
2019-03-18T06:54:22.326Z,16.10
2019-03-18T06:56:50.070Z,16.14
2019-03-18T06:59:17.807Z,15.82
2019-03-18T07:01:45.540Z,16.01
2019-03-18T07:04:13.298Z,15.73
2019-03-18T07:06:41.039Z,15.85
2019-03-18T07:09:08.793Z,15.87
2019-03-18T07:11:36.539Z,15.67
2019-03-18T07:14:04.293Z,15.80
2019-03-18T07:16:34.553Z,15.83
2019-03-18T07:19:03.727Z,15.71
2019-03-18T07:21:36.626Z,15.43
2019-03-18T07:24:04.424Z,15.47
2019-03-18T07:26:32.264Z,15.36
2019-03-18T07:29:00.019Z,15.23
2019-03-18T07:31:27.753Z,14.51
2019-03-18T07:33:55.518Z,15.46
2019-03-18T07:36:23.266Z,15.20
2019-03-18T07:38:51.005Z,15.58
2019-03-18T07:41:18.736Z,15.54
2019-03-18T07:43:46.500Z,15.45
2019-03-18T07:46:14.291Z,15.43
2019-03-18T07:48:42.086Z,15.56
2019-03-18T07:51:09.837Z,15.47
2019-03-18T07:53:37.664Z,15.25
2019-03-18T07:56:05.412Z,15.10
2019-03-18T07:58:33.240Z,15.34
2019-03-18T08:01:01.071Z,15.17
2019-03-18T08:03:28.926Z,14.27
2019-03-18T08:05:56.696Z,15.21
2019-03-18T08:08:24.582Z,14.93
2019-03-18T08:10:52.341Z,15.09
2019-03-18T08:13:20.070Z,15.25
2019-03-18T08:15:47.877Z,15.24
2019-03-18T08:18:15.632Z,15.26
2019-03-18T08:20:43.370Z,15.09
2019-03-18T08:23:11.143Z,15.10
2019-03-18T08:25:38.949Z,14.78
2019-03-18T08:28:06.710Z,15.18
2019-03-18T08:30:34.524Z,15.08
2019-03-18T08:33:03.174Z,15.03
2019-03-18T08:35:30.950Z,15.20
2019-03-18T08:37:58.747Z,15.39
2019-03-18T08:40:26.497Z,15.17
2019-03-18T08:42:54.239Z,14.62
2019-03-18T08:45:21.992Z,15.21
2019-03-18T08:47:49.744Z,15.03
2019-03-18T08:50:17.593Z,15.02
2019-03-18T08:52:45.353Z,15.39
2019-03-18T08:55:13.137Z,15.55
2019-03-18T08:57:40.888Z,15.41
2019-03-18T09:00:09.428Z,15.38
2019-03-18T09:02:37.176Z,15.19
2019-03-18T09:05:05.217Z,14.04
2019-03-18T09:07:33.021Z,15.12
2019-03-18T09:10:00.821Z,15.12
2019-03-18T09:12:28.873Z,15.10
2019-03-18T09:14:56.753Z,15.28
2019-03-18T09:17:24.812Z,15.16
2019-03-18T09:19:52.597Z,15.37
2019-03-18T09:22:20.354Z,15.34
2019-03-18T09:24:48.121Z,15.02
2019-03-18T09:27:15.880Z,15.15
2019-03-18T09:29:43.877Z,15.19
2019-03-18T09:32:11.839Z,15.41
2019-03-18T09:34:39.660Z,15.33
2019-03-18T09:37:07.425Z,15.13
2019-03-18T09:39:35.172Z,15.29
2019-03-18T09:42:02.934Z,14.59
2019-03-18T09:44:30.681Z,14.58
2019-03-18T09:46:58.424Z,15.13
2019-03-18T09:49:26.188Z,15.37
2019-03-18T09:51:54.013Z,15.39
2019-03-18T09:54:21.852Z,15.29
2019-03-18T09:56:49.606Z,15.14
2019-03-18T09:59:17.344Z,15.59
2019-03-18T10:01:45.185Z,15.34
2019-03-18T10:04:12.925Z,15.26
2019-03-18T10:06:40.922Z,15.15
2019-03-18T10:09:08.804Z,15.46
2019-03-18T10:11:36.756Z,15.82
2019-03-18T10:14:04.536Z,15.45
2019-03-18T10:16:32.276Z,15.54
2019-03-18T10:19:00.109Z,15.33
2019-03-18T10:21:27.853Z,15.54
2019-03-18T10:23:55.831Z,15.52
2019-03-18T10:26:23.590Z,15.31
2019-03-18T10:28:51.336Z,15.31
2019-03-18T10:31:19.099Z,15.42
2019-03-18T10:33:46.854Z,15.12
2019-03-18T10:36:14.584Z,15.11
2019-03-18T10:38:42.325Z,14.96
2019-03-18T10:41:10.075Z,14.97
2019-03-18T10:43:37.832Z,14.89
2019-03-18T10:46:05.600Z,14.87
2019-03-18T10:48:33.371Z,15.04
2019-03-18T10:51:01.115Z,15.55
2019-03-18T10:53:28.848Z,15.19
2019-03-18T10:56:07.350Z,15.03
2019-03-18T10:58:26.097Z,15.06
2019-03-18T11:00:53.852Z,15.23
2019-03-18T11:03:21.610Z,15.09
2019-03-18T11:05:49.353Z,15.16
2019-03-18T11:08:17.102Z,15.04
2019-03-18T11:10:44.931Z,14.72
2019-03-18T11:13:12.671Z,15.40
2019-03-18T11:15:40.438Z,15.54
2019-03-18T11:18:08.220Z,15.51
2019-03-18T11:20:36.049Z,15.71
2019-03-18T11:23:03.849Z,15.65
2019-03-18T11:25:31.669Z,15.61
2019-03-18T11:27:59.417Z,15.44
2019-03-18T11:30:27.256Z,14.87
2019-03-18T11:32:55.079Z,15.34
2019-03-18T11:35:22.822Z,15.70
2019-03-18T11:37:50.561Z,16.24
2019-03-18T11:40:18.304Z,15.46
2019-03-18T11:42:46.048Z,15.59
2019-03-18T11:45:13.808Z,15.39
2019-03-18T11:47:41.550Z,15.16
2019-03-18T11:50:11.290Z,15.24
2019-03-18T11:52:39.356Z,15.28
2019-03-18T11:55:07.771Z,15.42
2019-03-18T11:57:35.505Z,15.24
2019-03-18T12:00:03.279Z,15.36
2019-03-18T12:02:31.067Z,15.13
2019-03-18T12:04:58.805Z,15.20
2019-03-18T12:07:26.567Z,15.13
2019-03-18T12:09:54.312Z,15.11
2019-03-18T12:12:22.065Z,15.22
2019-03-18T12:14:49.835Z,15.14
2019-03-18T12:17:17.605Z,15.15
2019-03-18T12:19:45.329Z,15.13
2019-03-18T12:22:13.085Z,15.40
2019-03-18T12:24:40.862Z,15.19
2019-03-18T12:27:08.666Z,15.37
2019-03-18T12:29:36.404Z,14.77
2019-03-18T12:32:05.949Z,15.41
2019-03-18T12:34:33.741Z,15.38
2019-03-18T12:37:01.497Z,15.31
2019-03-18T12:39:29.300Z,15.57
2019-03-18T12:41:57.041Z,15.22
2019-03-18T12:44:24.802Z,15.31
2019-03-18T12:46:52.553Z,14.47
2019-03-18T12:49:20.300Z,15.10
2019-03-18T12:51:48.137Z,14.81
2019-03-18T12:54:15.861Z,14.89
2019-03-18T12:56:43.620Z,15.17
2019-03-18T12:59:11.352Z,14.48
2019-03-18T13:01:39.136Z,14.65
2019-03-18T13:04:08.896Z,15.25
2019-03-18T13:06:36.504Z,15.19
2019-03-18T13:09:06.212Z,15.45
2019-03-18T13:11:49.404Z,15.38
2019-03-18T13:14:17.135Z,15.77
2019-03-18T13:16:44.917Z,15.76
2019-03-18T13:19:12.665Z,14.94
2019-03-18T13:21:40.432Z,15.18
2019-03-18T13:24:08.184Z,15.05
2019-03-18T13:26:36.009Z,15.49
2019-03-18T13:29:03.753Z,15.05
2019-03-18T13:31:31.615Z,15.04
2019-03-18T13:33:59.433Z,15.39
2019-03-18T13:36:27.270Z,15.07
2019-03-18T13:38:55.036Z,15.10
2019-03-18T13:41:22.794Z,14.94
2019-03-18T13:43:50.541Z,14.86
2019-03-18T13:46:18.657Z,14.92
2019-03-18T13:48:46.528Z,15.03
2019-03-18T13:51:20.855Z,13.95
2019-03-18T13:53:43.779Z,14.54
2019-03-18T13:56:11.516Z,14.64
2019-03-18T13:58:39.340Z,14.89
2019-03-18T14:01:07.087Z,15.04
2019-03-18T14:03:34.856Z,15.09
2019-03-18T14:06:02.703Z,15.22
2019-03-18T14:08:30.487Z,14.80
2019-03-18T14:10:58.319Z,15.02
2019-03-18T14:13:26.059Z,15.23
2019-03-18T14:15:53.818Z,15.14
2019-03-18T14:18:21.685Z,15.24
2019-03-18T14:20:49.438Z,15.05
2019-03-18T14:23:17.234Z,15.13
2019-03-18T14:25:45.634Z,14.93
2019-03-18T14:28:13.670Z,14.97
2019-03-18T14:30:44.152Z,14.83
2019-03-18T14:33:14.103Z,15.01
2019-03-18T14:35:41.675Z,15.07
2019-03-18T14:38:09.511Z,15.07
2019-03-18T14:40:37.363Z,14.94
2019-03-18T14:43:05.132Z,15.14
2019-03-18T14:45:32.901Z,15.13
2019-03-18T14:48:00.761Z,15.04
2019-03-18T14:50:28.586Z,14.94
2019-03-18T14:52:56.470Z,14.94
2019-03-18T14:55:24.241Z,14.86
2019-03-18T14:57:52.028Z,15.38
2019-03-18T15:00:20.537Z,15.63
2019-03-18T15:02:48.304Z,15.37
2019-03-18T15:05:16.112Z,15.06
2019-03-18T15:07:50.942Z,15.01
2019-03-18T15:10:17.618Z,14.46
2019-03-18T15:13:01.894Z,14.92
2019-03-18T15:15:29.863Z,15.20
2019-03-18T15:17:57.620Z,14.75
2019-03-18T15:20:25.500Z,14.90
2019-03-18T15:22:53.402Z,14.65
2019-03-18T15:25:21.229Z,14.99
2019-03-18T15:27:48.980Z,14.98
2019-03-18T15:30:17.413Z,14.76
2019-03-18T15:32:46.318Z,14.65
2019-03-18T15:38:01.818Z,14.78
2019-03-18T15:40:37.097Z,14.88
2019-03-18T15:43:05.016Z,15.22
2019-03-18T15:45:43.371Z,15.00
2019-03-18T15:48:10.905Z,15.16
2019-03-18T15:50:38.663Z,15.17
2019-03-18T15:53:07.090Z,15.03
2019-03-18T15:55:34.857Z,14.97
2019-03-18T15:58:02.682Z,14.87
2019-03-18T16:00:46.579Z,14.70
2019-03-18T16:03:16.281Z,15.13
2019-03-18T16:05:44.089Z,14.82
2019-03-18T16:08:11.915Z,15.10
2019-03-18T16:10:39.961Z,15.36
2019-03-18T16:13:08.018Z,15.17
2019-03-18T16:15:35.881Z,15.16
2019-03-18T16:18:03.637Z,14.83
2019-03-18T16:20:31.435Z,14.76
2019-03-18T16:22:59.187Z,14.53
2019-03-18T16:25:26.957Z,14.90
2019-03-18T16:27:54.737Z,14.48
2019-03-18T16:30:22.522Z,14.60
2019-03-18T16:32:50.293Z,13.80
2019-03-18T16:35:18.142Z,14.42
2019-03-18T16:37:45.908Z,14.37
2019-03-18T16:40:13.799Z,14.63
2019-03-18T16:42:41.585Z,14.43
2019-03-18T16:45:10.001Z,14.53
2019-03-18T16:47:38.042Z,14.11
2019-03-18T16:50:11.841Z,14.32
2019-03-18T16:52:39.658Z,14.36
2019-03-18T16:55:07.419Z,14.43
2019-03-18T16:57:35.276Z,14.05
2019-03-18T17:00:03.133Z,14.03
2019-03-18T17:02:30.960Z,14.21
2019-03-18T17:04:58.804Z,14.83
2019-03-18T17:07:26.761Z,14.49
2019-03-18T17:09:55.431Z,14.22
2019-03-18T17:12:23.286Z,14.24
2019-03-18T17:14:52.690Z,14.25
2019-03-18T17:17:22.771Z,14.37
2019-03-18T17:19:50.518Z,13.74
2019-03-18T17:22:18.345Z,14.53
2019-03-18T17:24:49.220Z,14.59
2019-03-18T17:27:17.205Z,14.67
2019-03-18T17:29:45.022Z,14.99
2019-03-18T17:32:12.876Z,15.00
2019-03-18T17:34:40.760Z,14.99
2019-03-18T17:37:08.649Z,14.80
2019-03-18T17:39:36.489Z,14.85
2019-03-18T17:42:04.278Z,15.05
2019-03-18T17:44:32.118Z,15.01
2019-03-18T17:46:59.858Z,14.77
2019-03-18T17:49:27.969Z,15.00
2019-03-18T17:51:55.844Z,14.67
2019-03-18T17:54:23.664Z,14.95
2019-03-18T17:56:51.435Z,14.66
2019-03-18T17:59:19.213Z,14.95
2019-03-18T18:01:46.964Z,15.00
2019-03-18T18:04:14.766Z,15.00
2019-03-18T18:06:42.531Z,15.00
2019-03-18T18:09:10.273Z,15.17
2019-03-18T18:11:38.013Z,14.94
2019-03-18T18:14:05.761Z,15.00
2019-03-18T18:16:33.536Z,14.90
2019-03-18T18:19:01.304Z,14.89
2019-03-18T18:21:29.141Z,14.81
2019-03-18T18:23:56.962Z,14.73
2019-03-18T18:26:24.764Z,14.80
2019-03-18T18:28:52.551Z,14.48
2019-03-18T18:31:20.312Z,14.94
2019-03-18T18:33:48.060Z,15.05
2019-03-18T18:36:15.893Z,15.10
2019-03-18T18:38:43.729Z,14.96
2019-03-18T18:41:11.541Z,14.97
2019-03-18T18:43:39.317Z,15.16
2019-03-18T18:46:07.120Z,15.35
2019-03-18T18:48:34.912Z,15.20
2019-03-18T18:51:02.648Z,15.07
2019-03-18T18:53:30.521Z,15.23
2019-03-18T18:55:58.275Z,14.79
2019-03-18T18:58:26.096Z,15.16
2019-03-18T19:00:53.841Z,14.78
2019-03-18T19:03:21.784Z,14.74
2019-03-18T19:05:49.512Z,14.64
2019-03-18T19:08:17.301Z,14.48
2019-03-18T19:10:45.032Z,14.70
2019-03-18T19:13:12.932Z,14.52
2019-03-18T19:15:40.747Z,14.53
2019-03-18T19:18:08.524Z,14.62
2019-03-18T19:20:36.289Z,14.44
2019-03-18T19:23:05.041Z,15.00
2019-03-18T19:25:32.870Z,15.33
2019-03-18T19:28:00.639Z,14.75
2019-03-18T19:30:28.396Z,14.78
2019-03-18T19:32:56.136Z,14.67
2019-03-18T19:35:23.953Z,14.35
2019-03-18T19:37:51.821Z,14.53
2019-03-18T19:40:19.591Z,14.56
2019-03-18T19:42:47.515Z,14.49
2019-03-18T19:45:15.299Z,14.69
2019-03-18T19:47:43.192Z,14.80
2019-03-18T19:50:12.211Z,14.71
2019-03-18T19:52:40.040Z,14.60
2019-03-18T19:55:07.974Z,14.49
2019-03-18T19:57:35.765Z,14.65
2019-03-18T20:00:03.669Z,14.80
2019-03-18T20:02:33.630Z,14.83
2019-03-18T20:05:01.413Z,14.64
2019-03-18T20:07:29.311Z,14.63
2019-03-18T20:09:57.152Z,14.63
2019-03-18T20:12:24.927Z,14.67
2019-03-18T20:14:52.760Z,14.64
2019-03-18T20:17:20.613Z,14.74
2019-03-18T20:19:49.662Z,14.75
2019-03-18T20:22:17.537Z,15.04
2019-03-18T20:24:45.483Z,15.02
2019-03-18T20:27:13.481Z,15.01
2019-03-18T20:29:41.730Z,14.95
2019-03-18T20:32:10.707Z,15.11
2019-03-18T20:34:38.567Z,14.99
2019-03-18T20:37:06.663Z,15.00
2019-03-18T20:39:34.453Z,15.18
2019-03-18T20:42:02.205Z,15.01
2019-03-18T20:44:30.026Z,15.04
2019-03-18T20:46:57.768Z,14.98
2019-03-18T20:49:25.573Z,15.03
2019-03-18T20:51:53.393Z,15.02
2019-03-18T20:54:21.183Z,15.05
2019-03-18T20:56:51.481Z,15.19
2019-03-18T20:59:19.308Z,15.24
2019-03-18T21:01:47.095Z,15.09
2019-03-18T21:04:15.008Z,15.24
2019-03-18T21:06:42.890Z,14.58
2019-03-18T21:09:10.645Z,15.15
2019-03-18T21:11:38.402Z,15.13
2019-03-18T21:14:06.169Z,15.16
2019-03-18T21:16:33.923Z,15.11
2019-03-18T21:19:01.918Z,15.16
2019-03-18T21:21:29.752Z,14.99
2019-03-18T21:23:57.577Z,15.04
2019-03-18T21:26:25.327Z,14.97
2019-03-18T21:28:53.207Z,14.86
2019-03-18T21:31:21.016Z,14.89
2019-03-18T21:33:48.761Z,15.01
2019-03-18T21:36:28.119Z,15.18
2019-03-18T21:38:46.231Z,14.19
2019-03-18T21:41:13.986Z,14.97
2019-03-18T21:43:41.812Z,15.19
2019-03-18T21:46:09.895Z,15.01
2019-03-18T21:48:37.654Z,15.16
2019-03-18T21:51:05.384Z,14.05
2019-03-18T21:53:33.148Z,14.73
2019-03-18T21:56:00.944Z,14.51
2019-03-18T21:58:28.685Z,14.33
2019-03-18T22:00:56.487Z,13.91
2019-03-18T22:03:24.240Z,13.97
2019-03-18T22:05:52.008Z,14.55
2019-03-18T22:08:19.780Z,13.35
2019-03-18T22:10:47.557Z,14.61
2019-03-18T22:13:15.329Z,14.78
2019-03-18T22:15:43.101Z,14.88
2019-03-18T22:18:10.857Z,14.82
2019-03-18T22:20:38.618Z,14.98
2019-03-18T22:23:06.379Z,14.92
2019-03-18T22:25:34.797Z,15.12
2019-03-18T22:28:02.648Z,15.03
2019-03-18T22:30:30.475Z,15.01
2019-03-18T22:32:58.242Z,15.00
2019-03-18T22:35:26.004Z,15.07
2019-03-18T22:37:53.773Z,15.06
2019-03-18T22:40:21.533Z,15.10
2019-03-18T22:42:49.273Z,15.07
2019-03-18T22:45:17.069Z,15.04
2019-03-18T22:47:46.442Z,15.06
2019-03-18T22:50:14.731Z,15.04
2019-03-18T22:52:42.553Z,14.98
2019-03-18T22:55:10.356Z,14.93
2019-03-18T22:57:38.233Z,15.02
2019-03-18T23:00:09.395Z,14.86
2019-03-18T23:02:37.129Z,15.12
2019-03-18T23:05:05.359Z,15.06
2019-03-18T23:07:33.113Z,14.94
2019-03-18T23:10:00.881Z,14.96
2019-03-18T23:12:31.495Z,15.09
2019-03-18T23:14:59.266Z,15.22
2019-03-18T23:17:27.303Z,15.25
2019-03-18T23:19:55.096Z,15.50
2019-03-18T23:22:22.896Z,15.45
2019-03-18T23:24:50.706Z,15.42
2019-03-18T23:27:18.464Z,15.40
2019-03-18T23:29:46.252Z,15.43
2019-03-18T23:32:14.056Z,15.64
2019-03-18T23:34:41.800Z,15.36
2019-03-18T23:37:09.574Z,15.40
2019-03-18T23:39:37.433Z,15.48
2019-03-18T23:42:05.195Z,15.42
2019-03-18T23:44:51.227Z,15.52
2019-03-18T23:47:19.022Z,15.44
2019-03-18T23:49:47.658Z,15.48
2019-03-18T23:52:15.603Z,15.60
2019-03-18T23:54:43.368Z,15.41
2019-03-18T23:57:11.110Z,15.44
2019-03-18T23:59:38.844Z,15.60
